Time;durP1;ratioP1;P1;durP2;ratioP2;P2;SDS_P1;SDS_P2;PMS_P1;PMS_P2;Temp;Humidity;BMP_temperature;BMP_pressure;BME280_temperature;BME280_humidity;BME280_pressure;Samples;Min_cycle;Max_cycle;Signal;HPM_P1;HPM_P2
2021/01/06 00:00:20;;;;;;;20.92;12.18;;;3.10;99.90;;;;;;5012499;28;20412;-64
2021/01/06 00:02:46;;;;;;;17.70;11.73;;;3.10;99.90;;;;;;5011992;28;20889;-64
2021/01/06 00:05:17;;;;;;;20.13;13.57;;;3.10;99.90;;;;;;5012185;28;20420;-64
2021/01/06 00:07:44;;;;;;;23.35;14.15;;;3.10;99.90;;;;;;5012406;28;20424;-64
2021/01/06 00:10:12;;;;;;;24.45;14.60;;;3.10;99.90;;;;;;5012035;28;20478;-64
2021/01/06 00:12:40;;;;;;;23.35;14.65;;;3.10;99.90;;;;;;5012478;28;20442;-64
2021/01/06 00:15:07;;;;;;;21.63;14.95;;;3.10;99.90;;;;;;5012429;28;20474;-64
2021/01/06 00:17:34;;;;;;;26.98;15.13;;;3.10;99.90;;;;;;5011911;28;20420;-64
2021/01/06 00:20:00;;;;;;;26.17;15.55;;;3.20;99.90;;;;;;5011878;28;20424;-64
2021/01/06 00:22:26;;;;;;;20.33;13.40;;;3.20;99.90;;;;;;5011870;28;20841;-64
2021/01/06 00:24:52;;;;;;;22.95;14.00;;;3.20;99.90;;;;;;5012425;28;20782;-64
2021/01/06 00:27:18;;;;;;;19.75;14.00;;;3.10;99.90;;;;;;5012095;28;20413;-65
2021/01/06 00:29:45;;;;;;;22.88;14.38;;;3.10;99.90;;;;;;5011970;28;20908;-65
2021/01/06 00:32:12;;;;;;;21.80;13.85;;;3.20;99.90;;;;;;5012513;28;20450;-64
2021/01/06 00:34:39;;;;;;;22.98;13.93;;;3.10;99.90;;;;;;5011760;28;20951;-64
2021/01/06 00:37:05;;;;;;;22.02;13.38;;;3.10;99.90;;;;;;5011896;28;20423;-64
2021/01/06 00:39:31;;;;;;;22.42;13.80;;;3.10;99.90;;;;;;5011634;28;20413;-64
2021/01/06 00:41:58;;;;;;;24.05;14.88;;;3.10;99.90;;;;;;5011940;28;20417;-64
2021/01/06 00:44:24;;;;;;;25.10;16.30;;;3.10;99.90;;;;;;5011795;28;20828;-64
2021/01/06 00:46:50;;;;;;;22.90;15.35;;;3.10;99.90;;;;;;5012358;28;20423;-64
2021/01/06 00:49:16;;;;;;;23.85;15.10;;;3.10;99.90;;;;;;5011919;28;20417;-64
2021/01/06 00:51:46;;;;;;;21.63;13.88;;;3.10;99.90;;;;;;5011314;28;20767;-64
2021/01/06 00:54:12;;;;;;;22.10;14.52;;;3.10;99.90;;;;;;5011699;28;20428;-64
2021/01/06 00:56:38;;;;;;;24.40;15.15;;;3.10;99.90;;;;;;5011507;28;20420;-64
2021/01/06 00:59:05;;;;;;;23.00;13.80;;;3.10;99.90;;;;;;5011218;28;20939;-64
2021/01/06 01:01:31;;;;;;;21.15;14.43;;;3.10;99.90;;;;;;5011302;28;20479;-64
2021/01/06 01:03:57;;;;;;;24.73;15.20;;;3.00;99.90;;;;;;5011524;28;20540;-64
2021/01/06 01:06:25;;;;;;;24.73;15.82;;;3.10;99.90;;;;;;5011678;28;20794;-64
2021/01/06 01:08:52;;;;;;;24.13;14.55;;;3.00;99.90;;;;;;5010917;28;20475;-64
2021/01/06 01:11:21;;;;;;;23.52;14.85;;;3.10;99.90;;;;;;5011466;28;20412;-64
2021/01/06 01:13:47;;;;;;;22.02;14.45;;;3.10;99.90;;;;;;5010965;28;20429;-64
2021/01/06 01:16:14;;;;;;;21.63;13.30;;;3.10;99.90;;;;;;5010512;28;20423;-64
2021/01/06 01:18:40;;;;;;;20.00;13.40;;;3.10;99.90;;;;;;5010578;28;20432;-64
2021/01/06 01:21:06;;;;;;;24.25;14.23;;;3.00;99.90;;;;;;5011237;28;20759;-64
2021/01/06 01:23:32;;;;;;;21.38;14.27;;;3.10;99.90;;;;;;5010990;28;20467;-64
2021/01/06 01:25:59;;;;;;;22.20;13.93;;;3.10;99.90;;;;;;5011127;28;20475;-64
2021/01/06 01:28:26;;;;;;;21.27;13.73;;;3.20;99.90;;;;;;5010593;28;20940;-64
2021/01/06 01:30:54;;;;;;;22.85;14.07;;;3.10;99.90;;;;;;5010791;28;20413;-64
2021/01/06 01:33:22;;;;;;;23.65;14.38;;;3.20;99.90;;;;;;5010963;28;20909;-64
2021/01/06 01:35:48;;;;;;;25.27;15.30;;;3.20;99.90;;;;;;5011138;28;20408;-64
2021/01/06 01:38:17;;;;;;;24.92;15.57;;;3.20;99.90;;;;;;5010792;28;20419;-64
2021/01/06 01:40:43;;;;;;;25.80;15.77;;;3.00;99.90;;;;;;5011044;28;20420;-64
2021/01/06 01:43:18;;;;;;;25.15;15.55;;;3.00;99.90;;;;;;5010913;28;20825;-64
2021/01/06 01:46:33;;;;;;;23.90;15.77;;;3.00;99.90;;;;;;5011122;28;20420;-64
2021/01/06 01:49:03;;;;;;;25.50;16.20;;;2.90;99.90;;;;;;5013523;28;20427;-65
2021/01/06 01:51:39;;;;;;;21.65;14.00;;;3.00;99.90;;;;;;5014357;28;20408;-65
2021/01/06 01:54:08;;;;;;;22.42;14.90;;;3.00;99.90;;;;;;5013982;28;20420;-65
2021/01/06 01:56:43;;;;;;;23.00;14.55;;;3.10;99.90;;;;;;5012762;28;20805;-65
2021/01/06 01:59:15;;;;;;;23.13;14.20;;;3.00;99.90;;;;;;5010902;28;20421;-65
2021/01/06 02:01:43;;;;;;;20.73;14.23;;;3.00;99.90;;;;;;5010780;28;20829;-65
2021/01/06 02:04:15;;;;;;;22.10;14.65;;;3.10;99.90;;;;;;5010785;28;20479;-65
2021/01/06 02:06:52;;;;;;;21.67;14.63;;;3.10;99.90;;;;;;5010469;28;20421;-65
2021/01/06 02:09:24;;;;;;;17.90;12.55;;;3.10;99.90;;;;;;5010810;28;20413;-65
2021/01/06 02:11:58;;;;;;;18.17;12.93;;;3.10;99.90;;;;;;5010592;28;20421;-65
2021/01/06 02:14:32;;;;;;;17.30;12.80;;;3.10;94.30;;;;;;5010615;28;20926;-65
2021/01/06 02:17:04;;;;;;;17.43;11.67;;;3.10;87.10;;;;;;5010330;28;20492;-65
2021/01/06 02:19:33;;;;;;;18.65;12.48;;;3.10;69.90;;;;;;5010808;28;20412;-65
2021/01/06 02:22:01;;;;;;;17.85;11.90;;;3.10;32.70;;;;;;5010664;28;20413;-65
2021/01/06 02:24:27;;;;;;;16.50;12.10;;;3.20;60.60;;;;;;5010754;28;20806;-65
2021/01/06 02:26:54;;;;;;;16.88;11.82;;;3.20;40.30;;;;;;5012849;28;20481;-65
2021/01/06 02:29:21;;;;;;;15.75;9.43;;;3.20;1.00;;;;;;5014974;28;20695;-65
2021/01/06 02:31:47;;;;;;;17.77;10.15;;;3.20;1.00;;;;;;5015927;28;20212;-65
2021/01/06 02:34:13;;;;;;;14.77;9.05;;;3.20;1.00;;;;;;5015572;28;20214;-65
2021/01/06 02:36:40;;;;;;;15.02;9.45;;;3.20;1.00;;;;;;5015516;28;20221;-65
2021/01/06 02:39:09;;;;;;;13.02;8.23;;;3.10;1.00;;;;;;5014611;28;20225;-65
2021/01/06 02:41:36;;;;;;;20.98;10.00;;;3.00;1.00;;;;;;5014952;28;20669;-65
2021/01/06 02:44:04;;;;;;;14.07;9.38;;;3.00;1.00;;;;;;5014828;28;20201;-65
2021/01/06 02:46:30;;;;;;;13.45;9.15;;;2.90;13.50;;;;;;5014847;28;20571;-65
2021/01/06 02:48:56;;;;;;;15.18;9.02;;;2.90;58.70;;;;;;5015087;28;20219;-65
2021/01/06 02:51:28;;;;;;;9.38;6.43;;;2.80;96.00;;;;;;5014825;28;20198;-64
2021/01/06 02:53:58;;;;;;;17.25;9.73;;;2.80;99.90;;;;;;5015070;28;20587;-65
2021/01/06 02:56:25;;;;;;;16.08;8.90;;;2.90;99.90;;;;;;5014724;28;20204;-65
2021/01/06 02:58:53;;;;;;;15.40;8.73;;;2.90;99.90;;;;;;5014522;28;20720;-65
2021/01/06 03:01:25;;;;;;;14.55;9.20;;;2.90;99.90;;;;;;5014859;28;20208;-65
2021/01/06 03:03:53;;;;;;;15.13;9.85;;;2.90;99.90;;;;;;5014793;28;20210;-65
2021/01/06 03:06:23;;;;;;;14.40;10.57;;;2.90;98.10;;;;;;5014732;28;20229;-65
2021/01/06 03:08:49;;;;;;;14.35;7.72;;;2.90;86.90;;;;;;5013989;28;20286;-65
2021/01/06 03:11:16;;;;;;;13.10;8.27;;;2.90;51.70;;;;;;5014318;28;20208;-65
2021/01/06 03:13:43;;;;;;;16.80;10.63;;;2.90;51.60;;;;;;5014417;28;20225;-65
2021/01/06 03:16:09;;;;;;;17.27;9.02;;;2.90;73.70;;;;;;5014451;28;20212;-64
2021/01/06 03:18:36;;;;;;;16.33;9.80;;;2.80;20.50;;;;;;5013993;28;20636;-64
2021/01/06 03:21:05;;;;;;;14.25;8.15;;;2.80;5.50;;;;;;5014492;28;20557;-64
2021/01/06 03:23:35;;;;;;;13.50;8.88;;;2.70;20.20;;;;;;5014376;28;20197;-65
2021/01/06 03:26:04;;;;;;;13.90;7.45;;;2.70;83.60;;;;;;5014140;28;20202;-64
2021/01/06 03:28:32;;;;;;;10.63;7.55;;;2.80;87.30;;;;;;5013984;28;20632;-65
2021/01/06 03:31:03;;;;;;;17.30;9.52;;;2.70;86.70;;;;;;5013981;28;20206;-65
2021/01/06 03:33:34;;;;;;;15.05;10.82;;;2.70;86.90;;;;;;5014195;28;20230;-65
2021/01/06 03:36:03;;;;;;;14.38;10.10;;;2.80;99.90;;;;;;5014541;28;20183;-64
2021/01/06 03:38:33;;;;;;;12.90;8.60;;;2.80;99.90;;;;;;5013697;28;20231;-65
2021/01/06 03:41:01;;;;;;;18.17;11.45;;;2.70;99.90;;;;;;5015334;28;20261;-65
2021/01/06 03:43:30;;;;;;;16.55;9.45;;;2.70;99.90;;;;;;5014417;28;20214;-64
2021/01/06 03:46:01;;;;;;;16.17;10.52;;;2.60;99.90;;;;;;5014454;28;20253;-65
2021/01/06 03:48:34;;;;;;;18.85;9.45;;;2.60;99.90;;;;;;5013194;28;20224;-65
2021/01/06 03:51:06;;;;;;;15.95;9.60;;;2.60;99.90;;;;;;5014093;28;20206;-64
2021/01/06 03:53:36;;;;;;;14.05;9.63;;;2.60;99.90;;;;;;5013591;28;20249;-65
2021/01/06 03:56:05;;;;;;;16.40;10.13;;;2.70;99.90;;;;;;5014034;28;20576;-65
2021/01/06 03:58:39;;;;;;;15.90;9.48;;;2.70;99.90;;;;;;5013199;28;20228;-65
2021/01/06 04:01:22;;;;;;;18.75;10.30;;;2.70;99.90;;;;;;5013686;28;20570;-65
2021/01/06 04:03:54;;;;;;;16.65;9.27;;;2.60;99.90;;;;;;5024678;28;20211;-65
2021/01/06 04:06:23;;;;;;;16.58;10.10;;;2.70;99.90;;;;;;5033144;28;20206;-64
2021/01/06 04:08:54;;;;;;;12.32;8.40;;;2.70;99.90;;;;;;5032753;28;20221;-65
2021/01/06 04:11:24;;;;;;;9.95;6.05;;;2.70;99.90;;;;;;5032989;28;20614;-64
2021/01/06 04:13:50;;;;;;;11.57;7.20;;;2.70;99.90;;;;;;5033302;28;20207;-65
2021/01/06 04:16:17;;;;;;;12.95;8.05;;;2.70;99.90;;;;;;5033046;28;20205;-65
2021/01/06 04:18:44;;;;;;;8.10;6.25;;;2.60;99.90;;;;;;5032911;28;20240;-65
2021/01/06 04:21:11;;;;;;;11.13;7.20;;;2.60;99.90;;;;;;5033005;28;20561;-65
2021/01/06 04:23:37;;;;;;;8.13;5.70;;;2.50;99.90;;;;;;5033373;28;20190;-65
2021/01/06 04:26:03;;;;;;;9.95;6.82;;;2.50;99.90;;;;;;5032932;28;20206;-65
2021/01/06 04:28:33;;;;;;;8.35;6.75;;;2.50;99.90;;;;;;5032486;28;20222;-65
2021/01/06 04:31:01;;;;;;;9.68;6.75;;;2.50;99.90;;;;;;5033012;28;20202;-65
2021/01/06 04:33:30;;;;;;;15.00;8.30;;;2.50;99.90;;;;;;5032803;28;20213;-64
2021/01/06 04:36:00;;;;;;;12.45;7.63;;;2.50;99.90;;;;;;5032800;28;20268;-65
2021/01/06 04:38:28;;;;;;;10.27;7.57;;;2.50;99.90;;;;;;5032065;28;20214;-64
2021/01/06 04:40:56;;;;;;;12.18;7.53;;;2.50;99.90;;;;;;5032753;28;20201;-65
2021/01/06 04:43:29;;;;;;;15.50;9.90;;;2.60;99.90;;;;;;5033000;28;20198;-65
2021/01/06 04:46:06;;;;;;;11.45;7.30;;;2.50;99.90;;;;;;5032331;28;20207;-65
2021/01/06 04:48:45;;;;;;;13.35;9.68;;;2.50;99.90;;;;;;5032226;28;20228;-64
2021/01/06 04:51:39;;;;;;;12.85;8.52;;;2.60;99.90;;;;;;5032140;28;20202;-65
2021/01/06 04:54:28;;;;;;;21.48;11.52;;;2.50;99.90;;;;;;5032194;28;20236;-65
2021/01/06 04:57:13;;;;;;;21.30;12.07;;;2.50;99.90;;;;;;5031346;28;20194;-65
2021/01/06 04:59:53;;;;;;;18.17;10.15;;;2.60;99.90;;;;;;5032118;28;20213;-64
2021/01/06 05:02:35;;;;;;;20.33;11.73;;;2.50;99.90;;;;;;5031484;28;20209;-64
2021/01/06 05:05:35;;;;;;;20.65;12.68;;;2.50;99.90;;;;;;5032120;28;20190;-65
2021/01/06 05:08:11;;;;;;;16.23;10.48;;;2.50;99.90;;;;;;5031644;28;20584;-66
2021/01/06 05:10:40;;;;;;;19.75;11.02;;;2.50;99.90;;;;;;5031862;28;20197;-65
2021/01/06 05:13:18;;;;;;;19.25;11.63;;;2.60;99.90;;;;;;5031950;28;20207;-65
2021/01/06 05:15:50;;;;;;;19.10;11.25;;;2.60;99.90;;;;;;5031931;28;20209;-65
2021/01/06 05:18:16;;;;;;;19.67;12.20;;;2.60;99.90;;;;;;5031546;28;20307;-65
2021/01/06 05:20:43;;;;;;;16.88;10.13;;;2.60;99.90;;;;;;5031880;28;20197;-65
2021/01/06 05:23:16;;;;;;;21.50;11.60;;;2.60;99.90;;;;;;5031828;28;20876;-65
2021/01/06 05:25:42;;;;;;;17.33;11.23;;;2.60;99.90;;;;;;5031635;28;20204;-66
2021/01/06 05:28:13;;;;;;;14.57;9.63;;;2.60;99.90;;;;;;5031627;28;20227;-66
2021/01/06 05:30:40;;;;;;;20.80;12.18;;;2.50;99.90;;;;;;5031129;28;20196;-66
2021/01/06 05:33:08;;;;;;;14.05;9.00;;;2.60;99.90;;;;;;5031917;28;20286;-63
2021/01/06 05:35:38;;;;;;;17.83;11.35;;;2.60;99.90;;;;;;5031522;28;20663;-64
2021/01/06 05:38:06;;;;;;;17.45;12.30;;;2.60;99.90;;;;;;5031287;28;20218;-66
2021/01/06 05:40:35;;;;;;;20.13;9.80;;;2.50;99.90;;;;;;5031359;28;20720;-66
2021/01/06 05:43:04;;;;;;;14.63;10.30;;;2.50;99.90;;;;;;5031380;28;20194;-66
2021/01/06 05:45:39;;;;;;;15.63;10.60;;;2.50;99.90;;;;;;5031565;28;20227;-66
2021/01/06 05:48:15;;;;;;;15.50;11.13;;;2.40;99.90;;;;;;5031272;28;20216;-66
2021/01/06 05:50:43;;;;;;;18.10;11.63;;;2.50;99.90;;;;;;5031484;28;20198;-65
2021/01/06 05:53:20;;;;;;;16.55;11.00;;;2.40;99.90;;;;;;5031148;28;20208;-65
2021/01/06 05:55:49;;;;;;;18.60;10.13;;;2.50;99.90;;;;;;5031291;28;20208;-65
2021/01/06 05:58:20;;;;;;;17.55;9.90;;;2.50;99.90;;;;;;5031588;28;20218;-65
2021/01/06 06:00:59;;;;;;;20.27;9.88;;;2.50;99.90;;;;;;5031833;28;20193;-65
2021/01/06 06:03:40;;;;;;;18.02;11.88;;;2.50;99.90;;;;;;5035483;28;20209;-65
2021/01/06 06:06:35;;;;;;;18.70;10.80;;;2.50;99.90;;;;;;5034690;28;20196;-65
2021/01/06 06:09:07;;;;;;;21.02;8.27;;;2.50;93.80;;;;;;5032944;28;20274;-66
2021/01/06 06:12:02;;;;;;;18.42;11.02;;;2.40;86.50;;;;;;5035071;28;20199;-65
2021/01/06 06:14:53;;;;;;;16.15;11.48;;;2.40;86.80;;;;;;5034879;28;20238;-65
2021/01/06 06:17:28;;;;;;;25.83;10.60;;;2.40;71.80;;;;;;5035175;28;20260;-65
2021/01/06 06:20:08;;;;;;;17.23;9.70;;;2.40;78.30;;;;;;5035200;28;20255;-65
2021/01/06 06:22:39;;;;;;;16.45;11.13;;;2.40;85.80;;;;;;5034696;28;20607;-65
2021/01/06 06:25:18;;;;;;;16.70;10.40;;;2.40;54.00;;;;;;5034681;28;20554;-65
2021/01/06 06:28:02;;;;;;;14.75;9.55;;;2.50;47.90;;;;;;5031414;28;20332;-66
2021/01/06 06:30:37;;;;;;;21.80;12.40;;;2.50;28.90;;;;;;5033915;28;20648;-69
2021/01/06 06:33:15;;;;;;;15.30;9.85;;;2.50;29.30;;;;;;5035715;28;20194;-68
2021/01/06 06:35:48;;;;;;;18.85;11.25;;;2.40;12.50;;;;;;5037825;28;20194;-71
2021/01/06 06:38:16;;;;;;;16.58;11.35;;;2.40;1.30;;;;;;5039590;28;20223;-69
2021/01/06 06:40:51;;;;;;;19.98;10.38;;;2.40;1.00;;;;;;5037664;28;20198;-66
2021/01/06 06:43:27;;;;;;;16.50;10.27;;;2.50;1.00;;;;;;5036004;28;20198;-65
2021/01/06 06:46:02;;;;;;;22.90;11.23;;;2.40;1.00;;;;;;5034363;28;20193;-66
2021/01/06 06:48:38;;;;;;;21.52;13.20;;;2.30;1.00;;;;;;5033899;28;20221;-66
2021/01/06 06:51:12;;;;;;;15.88;9.45;;;2.30;1.00;;;;;;5034426;28;20230;-65
2021/01/06 06:53:46;;;;;;;19.42;11.25;;;2.30;1.00;;;;;;5017011;28;20355;-65
2021/01/06 06:56:23;;;;;;;19.42;12.80;;;2.40;1.00;;;;;;5034064;28;20202;-65
2021/01/06 06:58:53;;;;;;;19.50;10.93;;;2.30;1.00;;;;;;5034048;28;20587;-66
2021/01/06 07:01:25;;;;;;;21.83;13.13;;;2.30;1.00;;;;;;5039411;28;20202;-66
2021/01/06 07:03:57;;;;;;;21.13;11.85;;;2.40;1.00;;;;;;5034095;28;20198;-66
2021/01/06 07:06:24;;;;;;;19.15;11.82;;;2.30;1.00;;;;;;5034344;28;20680;-67
2021/01/06 07:08:53;;;;;;;17.42;12.05;;;2.30;1.00;;;;;;5033478;28;20221;-67
2021/01/06 07:11:34;;;;;;;17.55;11.80;;;2.30;1.00;;;;;;5034273;28;20201;-67
2021/01/06 07:14:07;;;;;;;21.23;13.15;;;2.30;1.00;;;;;;5032851;28;20224;-68
2021/01/06 07:16:42;;;;;;;22.40;11.35;;;2.30;1.00;;;;;;5033703;28;20212;-67
2021/01/06 07:19:20;;;;;;;18.42;12.65;;;2.30;1.00;;;;;;5033463;28;20230;-69
2021/01/06 07:21:51;;;;;;;23.65;13.13;;;2.30;1.00;;;;;;5033021;28;20249;-68
2021/01/06 07:24:21;;;;;;;22.20;13.40;;;2.40;1.00;;;;;;5034167;28;20198;-68
2021/01/06 07:26:51;;;;;;;21.85;13.63;;;2.30;1.00;;;;;;5034073;28;20201;-67
2021/01/06 07:29:20;;;;;;;18.80;12.02;;;2.40;1.00;;;;;;5032961;28;20206;-63
2021/01/06 07:31:58;;;;;;;21.70;12.00;;;2.40;1.00;;;;;;5033594;28;20207;-65
2021/01/06 07:34:40;;;;;;;18.33;12.00;;;2.50;1.00;;;;;;5033439;28;20714;-66
2021/01/06 07:37:20;;;;;;;19.75;11.05;;;2.50;1.00;;;;;;5033631;28;20203;-65
2021/01/06 07:39:47;;;;;;;17.23;11.30;;;2.40;1.00;;;;;;5032355;28;20221;-66
2021/01/06 07:42:32;;;;;;;19.80;11.88;;;2.40;1.00;;;;;;5033774;28;20210;-64
2021/01/06 07:45:20;;;;;;;21.67;12.85;;;2.30;1.00;;;;;;5033446;28;20201;-66
2021/01/06 07:47:51;;;;;;;15.50;10.25;;;2.30;1.00;;;;;;5033958;28;20654;-65
2021/01/06 07:50:22;;;;;;;18.55;11.20;;;2.20;99.90;;;;;;5033874;28;20745;-65
2021/01/06 07:52:53;;;;;;;15.98;11.73;;;2.20;99.90;;;;;;5034329;28;20198;-64
2021/01/06 07:55:33;;;;;;;14.45;10.13;;;2.30;1.00;;;;;;5033899;28;20215;-65
2021/01/06 07:58:06;;;;;;;21.45;12.93;;;2.30;99.90;;;;;;5032749;28;20240;-67
2021/01/06 08:00:36;;;;;;;17.88;11.55;;;2.30;99.90;;;;;;5033090;28;20201;-66
2021/01/06 08:03:20;;;;;;;20.15;11.45;;;2.30;99.90;;;;;;5032610;28;20211;-65
2021/01/06 08:05:55;;;;;;;25.13;10.77;;;2.30;99.90;;;;;;5033131;28;20200;-67
2021/01/06 08:08:22;;;;;;;11.82;8.13;;;2.40;99.90;;;;;;5032516;28;20229;-66
2021/01/06 08:10:49;;;;;;;22.13;11.35;;;2.40;99.90;;;;;;5032308;28;20197;-67
2021/01/06 08:13:29;;;;;;;20.65;10.88;;;2.40;99.90;;;;;;5032886;28;20256;-66
2021/01/06 08:16:10;;;;;;;17.63;10.88;;;2.40;99.90;;;;;;5032717;28;20200;-65
2021/01/06 08:18:45;;;;;;;19.50;11.55;;;2.40;99.90;;;;;;5032132;28;20221;-66
2021/01/06 08:21:21;;;;;;;22.45;13.23;;;2.40;99.90;;;;;;5032263;28;20208;-65
2021/01/06 08:24:00;;;;;;;17.83;11.65;;;2.40;99.90;;;;;;5032301;28;20205;-64
2021/01/06 08:26:28;;;;;;;18.02;11.40;;;2.50;99.90;;;;;;5033134;28;20207;-65
2021/01/06 08:29:11;;;;;;;15.10;10.10;;;2.50;99.90;;;;;;5032175;28;20702;-65
2021/01/06 08:31:38;;;;;;;17.98;10.98;;;2.50;99.90;;;;;;5033185;28;20197;-66
2021/01/06 08:34:06;;;;;;;18.80;12.63;;;2.50;99.90;;;;;;5032712;28;20217;-65
2021/01/06 08:36:35;;;;;;;19.42;12.38;;;2.50;99.90;;;;;;5033323;28;20221;-66
2021/01/06 08:39:15;;;;;;;17.40;12.45;;;2.60;99.90;;;;;;5033457;28;20222;-66
2021/01/06 08:41:42;;;;;;;17.77;11.55;;;2.50;99.90;;;;;;5033705;28;20210;-65
2021/01/06 08:44:36;;;;;;;14.77;10.15;;;2.60;99.90;;;;;;5033437;28;20678;-65
2021/01/06 08:47:04;;;;;;;14.73;9.52;;;2.60;99.90;;;;;;5032924;28;20199;-64
2021/01/06 08:49:32;;;;;;;22.70;12.00;;;2.60;99.90;;;;;;5032199;28;20617;-66
2021/01/06 08:52:18;;;;;;;20.35;11.23;;;2.60;99.90;;;;;;5032459;28;20199;-66
2021/01/06 08:54:46;;;;;;;25.60;12.50;;;2.50;99.90;;;;;;5032362;28;20214;-66
2021/01/06 08:57:21;;;;;;;16.30;9.73;;;2.50;99.90;;;;;;5032334;28;20229;-64
2021/01/06 08:59:48;;;;;;;17.55;11.07;;;2.50;99.90;;;;;;5032316;28;20279;-63
2021/01/06 09:02:31;;;;;;;17.85;11.95;;;2.40;99.90;;;;;;5032377;28;20210;-63
2021/01/06 09:04:57;;;;;;;17.15;10.63;;;2.40;99.90;;;;;;5032075;28;20190;-64
2021/01/06 09:07:26;;;;;;;16.10;11.93;;;2.40;99.90;;;;;;5031492;28;20213;-65
2021/01/06 09:10:09;;;;;;;16.15;10.85;;;2.30;99.90;;;;;;5031873;28;20233;-65
2021/01/06 09:12:55;;;;;;;16.30;11.10;;;2.30;99.90;;;;;;5032410;28;20222;-67
2021/01/06 09:15:32;;;;;;;18.13;10.40;;;2.30;99.90;;;;;;5031476;28;20263;-65
2021/01/06 09:18:05;;;;;;;27.70;11.70;;;2.30;99.90;;;;;;5031478;28;20221;-67
2021/01/06 09:20:38;;;;;;;28.80;14.77;;;2.40;99.90;;;;;;5031813;28;20209;-65
2021/01/06 09:23:05;;;;;;;19.98;11.05;;;2.40;99.90;;;;;;5031876;28;20568;-68
2021/01/06 09:25:32;;;;;;;23.40;13.07;;;2.40;99.90;;;;;;5032425;28;20202;-66
2021/01/06 09:28:00;;;;;;;17.10;10.23;;;2.40;99.90;;;;;;5032705;28;20221;-66
2021/01/06 09:30:31;;;;;;;21.55;12.98;;;2.50;99.90;;;;;;5032483;28;20260;-66
2021/01/06 09:33:01;;;;;;;18.15;10.48;;;2.50;99.90;;;;;;5031870;28;20202;-66
2021/01/06 09:35:30;;;;;;;17.58;10.18;;;2.50;62.80;;;;;;5031588;28;20226;-66
2021/01/06 09:37:59;;;;;;;20.20;11.60;;;2.50;46.90;;;;;;5031931;28;20228;-67
2021/01/06 09:40:27;;;;;;;16.13;11.32;;;2.40;47.50;;;;;;5031506;28;20194;-68
2021/01/06 09:42:58;;;;;;;20.25;13.60;;;2.40;50.20;;;;;;5033238;28;20230;-66
2021/01/06 09:45:27;;;;;;;10.10;7.38;;;2.40;49.70;;;;;;5033474;28;20210;-64
2021/01/06 09:47:58;;;;;;;16.05;11.10;;;2.40;34.10;;;;;;5031798;28;20252;-65
2021/01/06 09:50:30;;;;;;;16.17;10.02;;;2.40;1.00;;;;;;5031570;28;20203;-64
2021/01/06 09:53:00;;;;;;;16.55;10.77;;;2.40;1.00;;;;;;5031148;28;20193;-64
2021/01/06 09:55:28;;;;;;;15.75;10.60;;;2.30;1.00;;;;;;5030982;28;20225;-68
2021/01/06 09:58:03;;;;;;;19.55;13.13;;;2.30;4.00;;;;;;5030763;28;20230;-67
2021/01/06 10:00:36;;;;;;;17.83;9.55;;;2.30;1.00;;;;;;5031041;28;20202;-65
2021/01/06 10:03:05;;;;;;;16.42;11.02;;;2.40;1.00;;;;;;5031590;28;20209;-66
2021/01/06 10:05:51;;;;;;;14.90;10.07;;;2.40;1.00;;;;;;5031548;28;20206;-65
2021/01/06 10:08:27;;;;;;;20.80;11.27;;;2.40;1.00;;;;;;5031373;28;20219;-65
2021/01/06 10:10:58;;;;;;;16.85;9.63;;;2.40;1.00;;;;;;5031063;28;20203;-65
2021/01/06 10:13:33;;;;;;;16.80;11.65;;;2.40;1.00;;;;;;5031854;28;20265;-66
2021/01/06 10:16:04;;;;;;;16.15;10.57;;;2.40;1.00;;;;;;5031025;28;20692;-66
2021/01/06 10:18:42;;;;;;;17.15;11.90;;;2.40;1.00;;;;;;5031769;28;20225;-68
2021/01/06 10:21:19;;;;;;;18.45;11.52;;;2.50;1.00;;;;;;5031184;28;20285;-64
2021/01/06 10:24:17;;;;;;;16.90;10.38;;;2.40;1.00;;;;;;5031120;28;20284;-64
2021/01/06 10:26:53;;;;;;;17.20;11.60;;;2.30;1.00;;;;;;5031500;28;20569;-64
2021/01/06 10:29:33;;;;;;;16.58;11.48;;;2.30;1.00;;;;;;5031156;28;20256;-67
2021/01/06 10:32:03;;;;;;;16.88;9.85;;;2.30;1.00;;;;;;5031427;28;20197;-66
2021/01/06 10:34:37;;;;;;;17.38;11.98;;;2.40;1.00;;;;;;5030880;28;20214;-66
2021/01/06 10:37:19;;;;;;;15.50;10.25;;;2.40;1.00;;;;;;5031899;28;20197;-67
2021/01/06 10:39:49;;;;;;;16.55;10.27;;;2.30;1.00;;;;;;5031935;28;20573;-67
2021/01/06 10:42:36;;;;;;;17.63;10.73;;;2.20;1.00;;;;;;5031515;28;20377;-65
2021/01/06 10:45:10;;;;;;;20.00;10.80;;;2.20;1.00;;;;;;5031193;28;20198;-65
2021/01/06 10:47:49;;;;;;;15.55;10.68;;;2.20;1.00;;;;;;5033257;28;20224;-66
2021/01/06 10:50:43;;;;;;;16.58;11.65;;;2.30;1.00;;;;;;5034860;28;20203;-66
2021/01/06 10:53:19;;;;;;;15.02;10.82;;;2.30;1.00;;;;;;5037499;28;20205;-64
2021/01/06 10:55:49;;;;;;;22.17;10.13;;;2.40;1.00;;;;;;5037835;28;20229;-64
2021/01/06 10:58:28;;;;;;;16.65;9.48;;;2.40;1.00;;;;;;5034758;28;20225;-64
2021/01/06 11:01:38;;;;;;;16.90;11.68;;;2.40;1.00;;;;;;5034385;28;20252;-63
2021/01/06 11:04:26;;;;;;;14.55;9.95;;;2.40;1.00;;;;;;5035379;28;20603;-62
2021/01/06 11:07:03;;;;;;;19.67;10.85;;;2.40;1.00;;;;;;5038609;28;20198;-66
2021/01/06 11:09:50;;;;;;;16.20;10.32;;;2.30;1.00;;;;;;5037317;28;20206;-62
2021/01/06 11:12:32;;;;;;;17.77;11.00;;;2.30;1.00;;;;;;5039567;28;20198;-62
2021/01/06 11:15:14;;;;;;;14.60;10.05;;;2.30;1.00;;;;;;5039810;28;20722;-62
2021/01/06 11:17:43;;;;;;;15.38;9.40;;;2.30;1.00;;;;;;5040953;28;20221;-66
2021/01/06 11:20:30;;;;;;;16.10;11.77;;;2.30;1.00;;;;;;5039753;28;20224;-68
2021/01/06 11:23:22;;;;;;;15.27;9.70;;;2.30;1.00;;;;;;5041469;28;20202;-66
2021/01/06 11:25:51;;;;;;;16.10;10.82;;;2.30;1.00;;;;;;5016521;28;20198;-65
2021/01/06 11:28:29;;;;;;;17.15;10.93;;;2.30;1.00;;;;;;5034555;28;20708;-65
2021/01/06 11:31:20;;;;;;;19.20;8.93;;;2.30;1.00;;;;;;5034426;28;20205;-63
2021/01/06 11:33:47;;;;;;;13.10;9.43;;;2.30;99.90;;;;;;5034136;28;20203;-65
2021/01/06 11:36:38;;;;;;;14.27;9.45;;;2.30;1.00;;;;;;5034006;28;20194;-66
2021/01/06 11:39:07;;;;;;;12.85;8.85;;;2.40;1.00;;;;;;5033720;28;20231;-64
2021/01/06 11:42:09;;;;;;;14.88;10.23;;;2.40;99.90;;;;;;5034385;28;20198;-64
2021/01/06 11:44:39;;;;;;;12.65;7.85;;;2.30;99.90;;;;;;5035954;28;20201;-66
2021/01/06 11:47:30;;;;;;;11.98;8.50;;;2.30;1.00;;;;;;5033738;28;20204;-67
2021/01/06 11:50:02;;;;;;;15.45;10.15;;;2.50;1.00;;;;;;5033151;28;20259;-66
2021/01/06 11:52:43;;;;;;;15.43;10.23;;;2.90;1.00;;;;;;5034129;28;20198;-65
2021/01/06 11:55:33;;;;;;;14.18;9.05;;;3.10;1.00;;;;;;5034088;28;20220;-67
2021/01/06 11:58:19;;;;;;;12.00;8.98;;;3.00;99.90;;;;;;5032929;28;20222;-67
2021/01/06 12:01:06;;;;;;;15.98;9.93;;;2.90;99.90;;;;;;5033149;28;20202;-67
2021/01/06 12:03:42;;;;;;;14.68;8.95;;;2.80;99.90;;;;;;5033535;28;20211;-65
2021/01/06 12:06:20;;;;;;;15.50;8.90;;;2.70;99.90;;;;;;5033985;28;20618;-67
2021/01/06 12:08:59;;;;;;;13.23;8.70;;;2.60;99.90;;;;;;5033246;28;20218;-68
2021/01/06 12:11:32;;;;;;;10.85;7.97;;;2.60;99.90;;;;;;5036411;28;20642;-66
2021/01/06 12:14:21;;;;;;;15.20;10.35;;;2.50;99.90;;;;;;5034462;28;21223;-67
2021/01/06 12:16:55;;;;;;;14.15;8.95;;;2.40;99.90;;;;;;5016794;28;20198;-67
2021/01/06 12:19:30;;;;;;;13.32;8.55;;;2.50;99.90;;;;;;5032840;28;20255;-67
2021/01/06 12:22:12;;;;;;;13.50;8.55;;;2.50;99.90;;;;;;5032828;28;20259;-66
2021/01/06 12:24:51;;;;;;;14.48;9.27;;;2.50;99.90;;;;;;5033495;28;20569;-66
2021/01/06 12:27:40;;;;;;;13.40;8.88;;;2.50;99.90;;;;;;5032833;28;20215;-66
2021/01/06 12:30:33;;;;;;;11.43;8.05;;;2.50;99.90;;;;;;5031980;28;20729;-64
2021/01/06 12:33:03;;;;;;;13.50;8.10;;;2.50;99.90;;;;;;5037734;28;20188;-65
2021/01/06 12:35:35;;;;;;;12.60;9.00;;;2.60;99.90;;;;;;5033057;28;20224;-64
2021/01/06 12:43:19;;;;;;;12.45;8.95;;;2.60;99.90;;;;;;5011325;28;20215;-65
2021/01/06 12:45:58;;;;;;;15.18;8.88;;;2.60;99.90;;;;;;5013158;28;20198;-65
2021/01/06 12:48:31;;;;;;;14.68;10.13;;;2.60;99.90;;;;;;5012718;28;20226;-68
2021/01/06 12:51:09;;;;;;;15.43;9.10;;;2.60;99.90;;;;;;5012806;28;20203;-67
2021/01/06 12:53:40;;;;;;;13.15;10.40;;;2.70;99.90;;;;;;5012795;28;20277;-68
2021/01/06 12:56:13;;;;;;;13.75;9.43;;;2.70;99.90;;;;;;5013203;28;20199;-68
2021/01/06 12:58:45;;;;;;;13.18;9.55;;;2.80;99.90;;;;;;5011905;28;20225;-68
2021/01/06 13:01:20;;;;;;;13.70;9.30;;;2.70;99.90;;;;;;5012987;28;20244;-65
2021/01/06 13:03:50;;;;;;;15.65;8.90;;;2.70;99.90;;;;;;5013719;28;20202;-66
2021/01/06 13:06:26;;;;;;;14.65;10.05;;;2.70;99.90;;;;;;5013102;28;20229;-66
2021/01/06 13:08:57;;;;;;;14.52;9.35;;;2.70;99.90;;;;;;5012781;28;20216;-65
2021/01/06 13:11:30;;;;;;;12.35;8.40;;;2.70;99.90;;;;;;5011423;28;20197;-65
2021/01/06 13:14:21;;;;;;;9.85;7.70;;;2.70;99.90;;;;;;5012658;28;20202;-66
2021/01/06 13:16:51;;;;;;;11.65;7.88;;;2.80;99.90;;;;;;5012265;28;20202;-66
2021/01/06 13:19:32;;;;;;;16.50;8.55;;;2.80;99.90;;;;;;5012532;28;20203;-67